sensor_id;sensor_type;location;lat;lon;timestamp;P1;durP1;ratioP1;P2;durP2;ratioP2
75620;SDS011;64574;48.506;-2.750;2023-03-01T00:02:19;9.55;;;6.55;;
75620;SDS011;64574;48.506;-2.750;2023-03-01T00:04:45;11.40;;;7.20;;
75620;SDS011;64574;48.506;-2.750;2023-03-01T00:07:11;12.45;;;7.50;;
75620;SDS011;64574;48.506;-2.750;2023-03-01T00:09:37;12.90;;;7.47;;
75620;SDS011;64574;48.506;-2.750;2023-03-01T00:12:03;10.38;;;6.85;;
75620;SDS011;64574;48.506;-2.750;2023-03-01T00:14:29;10.13;;;7.07;;
75620;SDS011;64574;48.506;-2.750;2023-03-01T00:16:54;10.80;;;7.25;;
75620;SDS011;64574;48.506;-2.750;2023-03-01T00:19:20;16.33;;;9.48;;
75620;SDS011;64574;48.506;-2.750;2023-03-01T00:21:47;10.23;;;7.57;;
75620;SDS011;64574;48.506;-2.750;2023-03-01T00:24:13;13.43;;;7.47;;
75620;SDS011;64574;48.506;-2.750;2023-03-01T00:26:39;12.38;;;8.32;;
75620;SDS011;64574;48.506;-2.750;2023-03-01T00:29:04;12.98;;;7.85;;
75620;SDS011;64574;48.506;-2.750;2023-03-01T00:31:31;12.07;;;7.90;;
75620;SDS011;64574;48.506;-2.750;2023-03-01T00:33:58;11.73;;;7.07;;
75620;SDS011;64574;48.506;-2.750;2023-03-01T00:36:27;14.98;;;8.48;;
75620;SDS011;64574;48.506;-2.750;2023-03-01T00:38:54;15.48;;;8.85;;
75620;SDS011;64574;48.506;-2.750;2023-03-01T00:41:20;14.35;;;8.38;;
75620;SDS011;64574;48.506;-2.750;2023-03-01T00:43:47;13.50;;;8.30;;
75620;SDS011;64574;48.506;-2.750;2023-03-01T00:46:15;18.90;;;9.15;;
75620;SDS011;64574;48.506;-2.750;2023-03-01T00:48:43;14.82;;;8.35;;
75620;SDS011;64574;48.506;-2.750;2023-03-01T00:51:13;14.68;;;8.57;;
75620;SDS011;64574;48.506;-2.750;2023-03-01T00:53:44;14.30;;;8.32;;
75620;SDS011;64574;48.506;-2.750;2023-03-01T00:56:11;14.25;;;8.43;;
75620;SDS011;64574;48.506;-2.750;2023-03-01T00:58:38;12.73;;;8.30;;
75620;SDS011;64574;48.506;-2.750;2023-03-01T01:01:07;12.88;;;8.82;;
75620;SDS011;64574;48.506;-2.750;2023-03-01T01:03:47;15.20;;;8.88;;
75620;SDS011;64574;48.506;-2.750;2023-03-01T01:06:17;11.45;;;8.00;;
75620;SDS011;64574;48.506;-2.750;2023-03-01T01:08:45;13.23;;;8.45;;
75620;SDS011;64574;48.506;-2.750;2023-03-01T01:11:11;13.10;;;8.00;;
75620;SDS011;64574;48.506;-2.750;2023-03-01T01:13:38;13.52;;;9.05;;
75620;SDS011;64574;48.506;-2.750;2023-03-01T01:16:04;13.20;;;7.80;;
75620;SDS011;64574;48.506;-2.750;2023-03-01T01:18:30;14.52;;;9.20;;
75620;SDS011;64574;48.506;-2.750;2023-03-01T01:20:56;13.55;;;8.55;;
75620;SDS011;64574;48.506;-2.750;2023-03-01T01:23:21;15.27;;;8.82;;
75620;SDS011;64574;48.506;-2.750;2023-03-01T01:25:47;15.80;;;8.80;;
75620;SDS011;64574;48.506;-2.750;2023-03-01T01:28:13;12.45;;;8.40;;
75620;SDS011;64574;48.506;-2.750;2023-03-01T01:30:38;11.88;;;8.30;;
75620;SDS011;64574;48.506;-2.750;2023-03-01T01:33:04;13.98;;;7.95;;
75620;SDS011;64574;48.506;-2.750;2023-03-01T01:35:29;12.82;;;8.30;;
75620;SDS011;64574;48.506;-2.750;2023-03-01T01:37:55;15.30;;;8.73;;
75620;SDS011;64574;48.506;-2.750;2023-03-01T01:40:20;10.05;;;6.40;;
75620;SDS011;64574;48.506;-2.750;2023-03-01T01:42:46;13.40;;;8.32;;
75620;SDS011;64574;48.506;-2.750;2023-03-01T01:45:24;11.48;;;7.20;;
75620;SDS011;64574;48.506;-2.750;2023-03-01T01:47:54;12.00;;;7.35;;
75620;SDS011;64574;48.506;-2.750;2023-03-01T01:50:22;9.57;;;6.65;;
75620;SDS011;64574;48.506;-2.750;2023-03-01T01:52:48;11.25;;;7.35;;
75620;SDS011;64574;48.506;-2.750;2023-03-01T01:55:24;10.32;;;6.82;;
75620;SDS011;64574;48.506;-2.750;2023-03-01T01:57:53;11.52;;;7.20;;
75620;SDS011;64574;48.506;-2.750;2023-03-01T02:00:23;12.23;;;7.60;;
75620;SDS011;64574;48.506;-2.750;2023-03-01T02:03:10;11.68;;;8.02;;
75620;SDS011;64574;48.506;-2.750;2023-03-01T02:05:40;10.35;;;7.32;;
75620;SDS011;64574;48.506;-2.750;2023-03-01T02:08:14;10.60;;;7.30;;
75620;SDS011;64574;48.506;-2.750;2023-03-01T02:10:42;11.85;;;7.55;;
75620;SDS011;64574;48.506;-2.750;2023-03-01T02:13:08;10.25;;;7.10;;
75620;SDS011;64574;48.506;-2.750;2023-03-01T02:15:36;11.90;;;7.65;;
75620;SDS011;64574;48.506;-2.750;2023-03-01T02:18:03;13.65;;;7.93;;
75620;SDS011;64574;48.506;-2.750;2023-03-01T02:23:00;11.95;;;8.15;;
75620;SDS011;64574;48.506;-2.750;2023-03-01T02:25:34;12.07;;;8.00;;
75620;SDS011;64574;48.506;-2.750;2023-03-01T02:30:39;11.93;;;8.35;;
75620;SDS011;64574;48.506;-2.750;2023-03-01T02:33:25;12.32;;;7.50;;
75620;SDS011;64574;48.506;-2.750;2023-03-01T02:35:51;12.05;;;8.15;;
75620;SDS011;64574;48.506;-2.750;2023-03-01T02:38:19;11.52;;;7.30;;
75620;SDS011;64574;48.506;-2.750;2023-03-01T02:40:47;10.05;;;7.78;;
75620;SDS011;64574;48.506;-2.750;2023-03-01T02:43:16;13.30;;;8.18;;
75620;SDS011;64574;48.506;-2.750;2023-03-01T02:45:47;11.68;;;7.70;;
75620;SDS011;64574;48.506;-2.750;2023-03-01T02:48:15;11.95;;;7.53;;
75620;SDS011;64574;48.506;-2.750;2023-03-01T02:55:59;14.27;;;8.45;;
75620;SDS011;64574;48.506;-2.750;2023-03-01T02:58:25;15.70;;;8.93;;
75620;SDS011;64574;48.506;-2.750;2023-03-01T03:00:51;12.45;;;8.77;;
75620;SDS011;64574;48.506;-2.750;2023-03-01T03:03:17;12.23;;;7.00;;
75620;SDS011;64574;48.506;-2.750;2023-03-01T03:05:45;13.88;;;8.00;;
75620;SDS011;64574;48.506;-2.750;2023-03-01T03:08:11;13.35;;;7.82;;
75620;SDS011;64574;48.506;-2.750;2023-03-01T03:10:38;11.57;;;7.93;;
75620;SDS011;64574;48.506;-2.750;2023-03-01T03:13:06;10.90;;;8.23;;
75620;SDS011;64574;48.506;-2.750;2023-03-01T03:15:33;11.27;;;7.68;;
75620;SDS011;64574;48.506;-2.750;2023-03-01T03:18:04;13.77;;;8.15;;
75620;SDS011;64574;48.506;-2.750;2023-03-01T03:20:33;13.13;;;7.15;;
75620;SDS011;64574;48.506;-2.750;2023-03-01T03:22:59;13.07;;;8.25;;
75620;SDS011;64574;48.506;-2.750;2023-03-01T03:25:26;12.73;;;8.35;;
75620;SDS011;64574;48.506;-2.750;2023-03-01T03:27:52;13.95;;;8.45;;
75620;SDS011;64574;48.506;-2.750;2023-03-01T03:30:23;11.52;;;7.55;;
75620;SDS011;64574;48.506;-2.750;2023-03-01T03:32:56;10.93;;;7.25;;
75620;SDS011;64574;48.506;-2.750;2023-03-01T03:35:24;10.68;;;7.35;;
75620;SDS011;64574;48.506;-2.750;2023-03-01T03:37:58;10.48;;;7.78;;
75620;SDS011;64574;48.506;-2.750;2023-03-01T03:40:35;12.75;;;6.97;;
75620;SDS011;64574;48.506;-2.750;2023-03-01T03:43:02;14.82;;;7.90;;
75620;SDS011;64574;48.506;-2.750;2023-03-01T03:45:29;11.25;;;7.53;;
75620;SDS011;64574;48.506;-2.750;2023-03-01T03:47:58;11.75;;;6.85;;
75620;SDS011;64574;48.506;-2.750;2023-03-01T03:50:24;11.27;;;7.18;;
75620;SDS011;64574;48.506;-2.750;2023-03-01T03:52:50;12.77;;;7.95;;
75620;SDS011;64574;48.506;-2.750;2023-03-01T03:55:15;10.63;;;6.72;;
75620;SDS011;64574;48.506;-2.750;2023-03-01T03:57:44;9.43;;;6.57;;
75620;SDS011;64574;48.506;-2.750;2023-03-01T04:00:16;11.70;;;6.72;;
75620;SDS011;64574;48.506;-2.750;2023-03-01T04:02:44;9.32;;;6.25;;
75620;SDS011;64574;48.506;-2.750;2023-03-01T04:05:11;9.93;;;6.07;;
75620;SDS011;64574;48.506;-2.750;2023-03-01T04:07:39;7.05;;;5.43;;
75620;SDS011;64574;48.506;-2.750;2023-03-01T04:10:07;9.73;;;5.80;;
75620;SDS011;64574;48.506;-2.750;2023-03-01T04:12:37;8.07;;;5.50;;
75620;SDS011;64574;48.506;-2.750;2023-03-01T04:15:04;8.63;;;5.45;;
75620;SDS011;64574;48.506;-2.750;2023-03-01T04:17:41;10.60;;;6.25;;
75620;SDS011;64574;48.506;-2.750;2023-03-01T04:20:08;10.07;;;7.07;;
75620;SDS011;64574;48.506;-2.750;2023-03-01T04:22:37;8.77;;;5.93;;
75620;SDS011;64574;48.506;-2.750;2023-03-01T04:25:04;9.40;;;6.43;;
75620;SDS011;64574;48.506;-2.750;2023-03-01T04:27:33;10.35;;;6.22;;
75620;SDS011;64574;48.506;-2.750;2023-03-01T04:29:59;9.82;;;6.03;;
75620;SDS011;64574;48.506;-2.750;2023-03-01T04:32:25;8.57;;;5.45;;
75620;SDS011;64574;48.506;-2.750;2023-03-01T04:34:50;8.48;;;5.78;;
75620;SDS011;64574;48.506;-2.750;2023-03-01T04:37:16;9.40;;;6.22;;
75620;SDS011;64574;48.506;-2.750;2023-03-01T04:39:41;10.68;;;6.20;;
75620;SDS011;64574;48.506;-2.750;2023-03-01T04:42:10;7.53;;;4.82;;
75620;SDS011;64574;48.506;-2.750;2023-03-01T04:44:39;9.38;;;6.18;;
75620;SDS011;64574;48.506;-2.750;2023-03-01T04:47:05;8.65;;;6.28;;
75620;SDS011;64574;48.506;-2.750;2023-03-01T04:49:31;8.32;;;5.90;;
75620;SDS011;64574;48.506;-2.750;2023-03-01T04:51:57;9.18;;;5.75;;
75620;SDS011;64574;48.506;-2.750;2023-03-01T04:54:29;8.20;;;5.50;;
75620;SDS011;64574;48.506;-2.750;2023-03-01T04:56:55;10.38;;;6.28;;
75620;SDS011;64574;48.506;-2.750;2023-03-01T04:59:21;9.68;;;5.97;;
75620;SDS011;64574;48.506;-2.750;2023-03-01T05:01:48;9.90;;;6.25;;
75620;SDS011;64574;48.506;-2.750;2023-03-01T05:04:14;8.77;;;6.00;;
75620;SDS011;64574;48.506;-2.750;2023-03-01T05:06:40;10.00;;;6.45;;
75620;SDS011;64574;48.506;-2.750;2023-03-01T05:09:05;7.57;;;5.32;;
75620;SDS011;64574;48.506;-2.750;2023-03-01T05:11:31;8.43;;;5.70;;
75620;SDS011;64574;48.506;-2.750;2023-03-01T05:14:07;8.93;;;5.55;;
75620;SDS011;64574;48.506;-2.750;2023-03-01T05:16:34;8.60;;;6.07;;
75620;SDS011;64574;48.506;-2.750;2023-03-01T05:19:01;10.30;;;6.03;;
75620;SDS011;64574;48.506;-2.750;2023-03-01T05:21:36;11.63;;;5.70;;
75620;SDS011;64574;48.506;-2.750;2023-03-01T05:24:24;11.85;;;6.18;;
75620;SDS011;64574;48.506;-2.750;2023-03-01T05:26:50;10.13;;;6.10;;
75620;SDS011;64574;48.506;-2.750;2023-03-01T05:29:19;9.48;;;5.25;;
75620;SDS011;64574;48.506;-2.750;2023-03-01T05:31:50;9.20;;;5.38;;
75620;SDS011;64574;48.506;-2.750;2023-03-01T05:34:18;11.75;;;6.20;;
75620;SDS011;64574;48.506;-2.750;2023-03-01T05:36:47;14.27;;;5.50;;
75620;SDS011;64574;48.506;-2.750;2023-03-01T05:39:13;9.32;;;5.38;;
75620;SDS011;64574;48.506;-2.750;2023-03-01T05:41:38;8.65;;;5.70;;
75620;SDS011;64574;48.506;-2.750;2023-03-01T05:44:06;7.78;;;5.32;;
75620;SDS011;64574;48.506;-2.750;2023-03-01T05:46:32;7.90;;;4.60;;
75620;SDS011;64574;48.506;-2.750;2023-03-01T05:48:57;8.77;;;5.25;;
75620;SDS011;64574;48.506;-2.750;2023-03-01T05:51:23;7.97;;;5.07;;
75620;SDS011;64574;48.506;-2.750;2023-03-01T05:53:48;6.82;;;4.63;;
75620;SDS011;64574;48.506;-2.750;2023-03-01T05:56:14;6.50;;;4.50;;
75620;SDS011;64574;48.506;-2.750;2023-03-01T05:58:40;8.35;;;4.97;;
75620;SDS011;64574;48.506;-2.750;2023-03-01T06:01:10;7.90;;;3.95;;
75620;SDS011;64574;48.506;-2.750;2023-03-01T06:03:37;5.25;;;4.13;;
75620;SDS011;64574;48.506;-2.750;2023-03-01T06:06:02;5.97;;;4.25;;
75620;SDS011;64574;48.506;-2.750;2023-03-01T06:08:28;7.60;;;4.07;;
75620;SDS011;64574;48.506;-2.750;2023-03-01T06:10:54;6.82;;;4.00;;
75620;SDS011;64574;48.506;-2.750;2023-03-01T06:13:19;7.63;;;4.30;;
75620;SDS011;64574;48.506;-2.750;2023-03-01T06:15:45;8.88;;;4.60;;
75620;SDS011;64574;48.506;-2.750;2023-03-01T06:18:10;5.18;;;4.10;;
75620;SDS011;64574;48.506;-2.750;2023-03-01T06:20:36;5.38;;;3.50;;
75620;SDS011;64574;48.506;-2.750;2023-03-01T06:23:02;7.07;;;3.95;;
75620;SDS011;64574;48.506;-2.750;2023-03-01T06:25:27;6.50;;;4.05;;
75620;SDS011;64574;48.506;-2.750;2023-03-01T06:27:53;8.52;;;4.70;;
75620;SDS011;64574;48.506;-2.750;2023-03-01T06:30:20;7.45;;;3.92;;
75620;SDS011;64574;48.506;-2.750;2023-03-01T06:32:47;6.05;;;4.00;;
75620;SDS011;64574;48.506;-2.750;2023-03-01T06:35:14;7.45;;;3.65;;
75620;SDS011;64574;48.506;-2.750;2023-03-01T06:37:43;9.23;;;4.70;;
75620;SDS011;64574;48.506;-2.750;2023-03-01T06:40:09;6.35;;;4.38;;
75620;SDS011;64574;48.506;-2.750;2023-03-01T06:42:36;7.68;;;4.63;;
75620;SDS011;64574;48.506;-2.750;2023-03-01T06:45:04;8.00;;;4.20;;
75620;SDS011;64574;48.506;-2.750;2023-03-01T06:47:31;6.50;;;3.85;;
75620;SDS011;64574;48.506;-2.750;2023-03-01T06:49:58;7.22;;;4.10;;
75620;SDS011;64574;48.506;-2.750;2023-03-01T06:52:28;7.47;;;4.45;;
75620;SDS011;64574;48.506;-2.750;2023-03-01T06:54:54;8.38;;;4.95;;
75620;SDS011;64574;48.506;-2.750;2023-03-01T06:57:19;7.28;;;4.78;;
75620;SDS011;64574;48.506;-2.750;2023-03-01T06:59:46;12.25;;;5.82;;
75620;SDS011;64574;48.506;-2.750;2023-03-01T07:02:12;6.60;;;4.70;;
75620;SDS011;64574;48.506;-2.750;2023-03-01T07:04:40;8.63;;;4.72;;
75620;SDS011;64574;48.506;-2.750;2023-03-01T07:07:06;6.32;;;4.72;;
75620;SDS011;64574;48.506;-2.750;2023-03-01T07:09:31;7.93;;;4.45;;
75620;SDS011;64574;48.506;-2.750;2023-03-01T07:11:57;9.65;;;4.82;;
75620;SDS011;64574;48.506;-2.750;2023-03-01T07:14:23;8.43;;;4.90;;
75620;SDS011;64574;48.506;-2.750;2023-03-01T07:16:50;7.85;;;4.55;;
75620;SDS011;64574;48.506;-2.750;2023-03-01T07:19:16;9.02;;;4.95;;
75620;SDS011;64574;48.506;-2.750;2023-03-01T07:21:42;10.13;;;5.18;;
75620;SDS011;64574;48.506;-2.750;2023-03-01T07:24:08;8.25;;;4.55;;
75620;SDS011;64574;48.506;-2.750;2023-03-01T07:26:34;9.88;;;5.30;;
75620;SDS011;64574;48.506;-2.750;2023-03-01T07:29:01;7.60;;;4.20;;
75620;SDS011;64574;48.506;-2.750;2023-03-01T07:31:28;7.90;;;4.40;;
75620;SDS011;64574;48.506;-2.750;2023-03-01T07:33:54;7.38;;;5.22;;
75620;SDS011;64574;48.506;-2.750;2023-03-01T07:36:20;12.45;;;5.30;;
75620;SDS011;64574;48.506;-2.750;2023-03-01T07:38:46;8.18;;;4.53;;
75620;SDS011;64574;48.506;-2.750;2023-03-01T07:41:11;9.18;;;4.82;;
75620;SDS011;64574;48.506;-2.750;2023-03-01T07:43:37;8.05;;;4.80;;
75620;SDS011;64574;48.506;-2.750;2023-03-01T07:46:03;9.68;;;5.07;;
75620;SDS011;64574;48.506;-2.750;2023-03-01T07:48:29;9.55;;;5.32;;
75620;SDS011;64574;48.506;-2.750;2023-03-01T07:51:02;8.60;;;4.90;;
75620;SDS011;64574;48.506;-2.750;2023-03-01T07:53:30;8.15;;;5.53;;
75620;SDS011;64574;48.506;-2.750;2023-03-01T07:58:31;12.73;;;6.53;;
75620;SDS011;64574;48.506;-2.750;2023-03-01T08:01:00;16.00;;;6.78;;
75620;SDS011;64574;48.506;-2.750;2023-03-01T08:03:27;9.88;;;5.63;;
75620;SDS011;64574;48.506;-2.750;2023-03-01T08:05:53;14.02;;;6.20;;
75620;SDS011;64574;48.506;-2.750;2023-03-01T08:08:19;12.90;;;6.55;;
75620;SDS011;64574;48.506;-2.750;2023-03-01T08:10:44;9.02;;;5.80;;
75620;SDS011;64574;48.506;-2.750;2023-03-01T08:13:10;12.32;;;6.35;;
75620;SDS011;64574;48.506;-2.750;2023-03-01T08:15:36;14.45;;;6.82;;
75620;SDS011;64574;48.506;-2.750;2023-03-01T08:18:01;20.63;;;8.43;;
75620;SDS011;64574;48.506;-2.750;2023-03-01T08:20:27;11.38;;;6.82;;
75620;SDS011;64574;48.506;-2.750;2023-03-01T08:22:52;12.48;;;7.47;;
75620;SDS011;64574;48.506;-2.750;2023-03-01T08:25:18;16.25;;;7.90;;
75620;SDS011;64574;48.506;-2.750;2023-03-01T08:27:43;10.27;;;6.53;;
75620;SDS011;64574;48.506;-2.750;2023-03-01T08:30:09;15.77;;;7.18;;
75620;SDS011;64574;48.506;-2.750;2023-03-01T08:32:38;17.77;;;8.65;;
75620;SDS011;64574;48.506;-2.750;2023-03-01T08:35:04;15.20;;;8.35;;
75620;SDS011;64574;48.506;-2.750;2023-03-01T08:37:30;16.02;;;7.50;;
75620;SDS011;64574;48.506;-2.750;2023-03-01T08:39:58;16.63;;;8.38;;
75620;SDS011;64574;48.506;-2.750;2023-03-01T08:42:25;16.00;;;8.07;;
75620;SDS011;64574;48.506;-2.750;2023-03-01T08:44:51;15.00;;;7.20;;
75620;SDS011;64574;48.506;-2.750;2023-03-01T08:47:16;13.55;;;7.13;;
75620;SDS011;64574;48.506;-2.750;2023-03-01T08:49:42;11.52;;;6.90;;
75620;SDS011;64574;48.506;-2.750;2023-03-01T08:52:07;15.88;;;8.30;;
75620;SDS011;64574;48.506;-2.750;2023-03-01T08:54:33;17.25;;;7.97;;
75620;SDS011;64574;48.506;-2.750;2023-03-01T08:57:00;13.98;;;7.35;;
75620;SDS011;64574;48.506;-2.750;2023-03-01T08:59:27;15.18;;;7.57;;
75620;SDS011;64574;48.506;-2.750;2023-03-01T09:01:54;15.50;;;7.15;;
75620;SDS011;64574;48.506;-2.750;2023-03-01T09:04:20;10.32;;;6.47;;
75620;SDS011;64574;48.506;-2.750;2023-03-01T09:06:45;19.17;;;7.47;;
75620;SDS011;64574;48.506;-2.750;2023-03-01T09:09:14;15.43;;;8.55;;
75620;SDS011;64574;48.506;-2.750;2023-03-01T09:11:42;15.73;;;9.02;;
75620;SDS011;64574;48.506;-2.750;2023-03-01T09:14:11;15.55;;;8.10;;
75620;SDS011;64574;48.506;-2.750;2023-03-01T09:16:37;16.42;;;8.02;;
75620;SDS011;64574;48.506;-2.750;2023-03-01T09:19:03;13.05;;;7.78;;
75620;SDS011;64574;48.506;-2.750;2023-03-01T09:21:29;14.50;;;7.93;;
75620;SDS011;64574;48.506;-2.750;2023-03-01T09:23:56;15.32;;;8.10;;
75620;SDS011;64574;48.506;-2.750;2023-03-01T09:26:22;14.50;;;8.57;;
75620;SDS011;64574;48.506;-2.750;2023-03-01T09:28:49;16.63;;;8.20;;
75620;SDS011;64574;48.506;-2.750;2023-03-01T09:31:17;14.10;;;8.32;;
75620;SDS011;64574;48.506;-2.750;2023-03-01T09:33:45;11.65;;;7.40;;
75620;SDS011;64574;48.506;-2.750;2023-03-01T09:36:13;13.27;;;7.82;;
75620;SDS011;64574;48.506;-2.750;2023-03-01T09:38:41;15.52;;;8.70;;
75620;SDS011;64574;48.506;-2.750;2023-03-01T09:41:29;14.52;;;8.15;;
75620;SDS011;64574;48.506;-2.750;2023-03-01T09:53:04;13.63;;;8.25;;
75620;SDS011;64574;48.506;-2.750;2023-03-01T09:55:37;13.90;;;7.47;;
75620;SDS011;64574;48.506;-2.750;2023-03-01T10:03:23;13.20;;;7.60;;
75620;SDS011;64574;48.506;-2.750;2023-03-01T10:06:15;12.27;;;7.43;;
75620;SDS011;64574;48.506;-2.750;2023-03-01T10:11:32;16.63;;;9.00;;
75620;SDS011;64574;48.506;-2.750;2023-03-01T10:19:36;17.98;;;8.98;;
75620;SDS011;64574;48.506;-2.750;2023-03-01T10:22:10;18.05;;;8.85;;
75620;SDS011;64574;48.506;-2.750;2023-03-01T10:24:46;16.70;;;8.27;;
75620;SDS011;64574;48.506;-2.750;2023-03-01T10:27:22;19.02;;;9.10;;
75620;SDS011;64574;48.506;-2.750;2023-03-01T10:29:54;15.45;;;8.50;;
75620;SDS011;64574;48.506;-2.750;2023-03-01T10:32:23;15.38;;;8.70;;
75620;SDS011;64574;48.506;-2.750;2023-03-01T10:34:49;14.48;;;8.40;;
75620;SDS011;64574;48.506;-2.750;2023-03-01T10:37:18;14.63;;;8.95;;
75620;SDS011;64574;48.506;-2.750;2023-03-01T10:39:56;15.35;;;8.90;;
75620;SDS011;64574;48.506;-2.750;2023-03-01T10:42:29;16.88;;;8.70;;
75620;SDS011;64574;48.506;-2.750;2023-03-01T10:44:57;14.45;;;7.90;;
75620;SDS011;64574;48.506;-2.750;2023-03-01T10:47:40;18.02;;;8.48;;
75620;SDS011;64574;48.506;-2.750;2023-03-01T10:50:06;19.23;;;8.13;;
75620;SDS011;64574;48.506;-2.750;2023-03-01T10:52:47;17.80;;;9.15;;
75620;SDS011;64574;48.506;-2.750;2023-03-01T10:55:35;15.35;;;8.77;;
75620;SDS011;64574;48.506;-2.750;2023-03-01T10:58:21;15.90;;;8.40;;
75620;SDS011;64574;48.506;-2.750;2023-03-01T11:00:48;13.18;;;7.75;;
75620;SDS011;64574;48.506;-2.750;2023-03-01T11:03:19;17.45;;;9.65;;
75620;SDS011;64574;48.506;-2.750;2023-03-01T11:05:58;15.57;;;8.65;;
75620;SDS011;64574;48.506;-2.750;2023-03-01T11:13:30;19.90;;;8.93;;
75620;SDS011;64574;48.506;-2.750;2023-03-01T11:16:00;15.55;;;9.02;;
75620;SDS011;64574;48.506;-2.750;2023-03-01T11:18:35;16.83;;;9.32;;
75620;SDS011;64574;48.506;-2.750;2023-03-01T11:21:00;14.80;;;9.07;;
75620;SDS011;64574;48.506;-2.750;2023-03-01T11:23:28;16.13;;;9.32;;
75620;SDS011;64574;48.506;-2.750;2023-03-01T11:25:56;15.77;;;9.07;;
75620;SDS011;64574;48.506;-2.750;2023-03-01T11:28:28;14.75;;;8.40;;
75620;SDS011;64574;48.506;-2.750;2023-03-01T11:31:05;15.50;;;8.65;;
75620;SDS011;64574;48.506;-2.750;2023-03-01T11:38:49;15.40;;;8.70;;
75620;SDS011;64574;48.506;-2.750;2023-03-01T11:41:16;17.63;;;9.20;;
75620;SDS011;64574;48.506;-2.750;2023-03-01T12:00:11;17.30;;;9.30;;
75620;SDS011;64574;48.506;-2.750;2023-03-01T12:52:48;16.92;;;9.35;;
75620;SDS011;64574;48.506;-2.750;2023-03-01T12:55:41;16.23;;;9.32;;
75620;SDS011;64574;48.506;-2.750;2023-03-01T13:09:30;17.73;;;10.00;;
75620;SDS011;64574;48.506;-2.750;2023-03-01T13:18:02;15.77;;;9.07;;
75620;SDS011;64574;48.506;-2.750;2023-03-01T13:31:04;17.88;;;10.20;;
75620;SDS011;64574;48.506;-2.750;2023-03-01T13:35:59;19.73;;;10.95;;
75620;SDS011;64574;48.506;-2.750;2023-03-01T13:41:16;16.80;;;10.02;;
75620;SDS011;64574;48.506;-2.750;2023-03-01T13:44:11;16.95;;;10.65;;
75620;SDS011;64574;48.506;-2.750;2023-03-01T13:46:51;16.58;;;10.13;;
75620;SDS011;64574;48.506;-2.750;2023-03-01T13:49:31;15.57;;;10.40;;
75620;SDS011;64574;48.506;-2.750;2023-03-01T13:52:02;19.65;;;11.38;;
75620;SDS011;64574;48.506;-2.750;2023-03-01T13:54:30;18.55;;;10.70;;
75620;SDS011;64574;48.506;-2.750;2023-03-01T13:56:58;16.38;;;10.15;;
75620;SDS011;64574;48.506;-2.750;2023-03-01T14:01:55;18.60;;;10.23;;
75620;SDS011;64574;48.506;-2.750;2023-03-01T14:04:23;17.10;;;10.48;;
75620;SDS011;64574;48.506;-2.750;2023-03-01T14:06:50;20.42;;;11.07;;
75620;SDS011;64574;48.506;-2.750;2023-03-01T14:19:46;17.42;;;10.95;;
75620;SDS011;64574;48.506;-2.750;2023-03-01T14:22:55;17.25;;;10.38;;
75620;SDS011;64574;48.506;-2.750;2023-03-01T14:25:03;13.93;;;9.30;;
75620;SDS011;64574;48.506;-2.750;2023-03-01T14:27:41;20.20;;;11.23;;
75620;SDS011;64574;48.506;-2.750;2023-03-01T14:33:17;14.30;;;9.50;;
75620;SDS011;64574;48.506;-2.750;2023-03-01T14:35:52;22.20;;;10.55;;
75620;SDS011;64574;48.506;-2.750;2023-03-01T14:38:21;14.70;;;9.27;;
75620;SDS011;64574;48.506;-2.750;2023-03-01T14:40:57;14.18;;;9.27;;
75620;SDS011;64574;48.506;-2.750;2023-03-01T14:43:27;13.13;;;8.93;;
75620;SDS011;64574;48.506;-2.750;2023-03-01T14:45:54;12.13;;;8.40;;
75620;SDS011;64574;48.506;-2.750;2023-03-01T14:48:20;13.02;;;8.40;;
75620;SDS011;64574;48.506;-2.750;2023-03-01T14:50:46;11.45;;;8.55;;
75620;SDS011;64574;48.506;-2.750;2023-03-01T14:53:26;16.52;;;9.40;;
75620;SDS011;64574;48.506;-2.750;2023-03-01T14:55:55;12.20;;;8.95;;
75620;SDS011;64574;48.506;-2.750;2023-03-01T14:58:25;14.52;;;8.13;;
75620;SDS011;64574;48.506;-2.750;2023-03-01T15:00:59;12.48;;;8.55;;
75620;SDS011;64574;48.506;-2.750;2023-03-01T15:03:42;15.85;;;8.88;;
75620;SDS011;64574;48.506;-2.750;2023-03-01T15:06:09;16.05;;;9.70;;
75620;SDS011;64574;48.506;-2.750;2023-03-01T15:08:44;15.80;;;9.45;;
75620;SDS011;64574;48.506;-2.750;2023-03-01T15:11:22;12.95;;;8.77;;
75620;SDS011;64574;48.506;-2.750;2023-03-01T15:13:50;17.60;;;9.75;;
75620;SDS011;64574;48.506;-2.750;2023-03-01T15:16:17;13.15;;;9.90;;
75620;SDS011;64574;48.506;-2.750;2023-03-01T15:21:27;11.38;;;8.05;;
75620;SDS011;64574;48.506;-2.750;2023-03-01T15:24:02;13.50;;;8.15;;
75620;SDS011;64574;48.506;-2.750;2023-03-01T15:26:43;12.40;;;8.07;;
75620;SDS011;64574;48.506;-2.750;2023-03-01T15:29:18;14.82;;;8.95;;
75620;SDS011;64574;48.506;-2.750;2023-03-01T15:31:55;12.75;;;8.15;;
75620;SDS011;64574;48.506;-2.750;2023-03-01T15:34:29;12.13;;;8.43;;
75620;SDS011;64574;48.506;-2.750;2023-03-01T15:36:57;15.15;;;8.43;;
75620;SDS011;64574;48.506;-2.750;2023-03-01T15:39:41;12.90;;;8.68;;
75620;SDS011;64574;48.506;-2.750;2023-03-01T15:42:10;13.13;;;8.55;;
75620;SDS011;64574;48.506;-2.750;2023-03-01T15:44:36;15.15;;;8.57;;
75620;SDS011;64574;48.506;-2.750;2023-03-01T15:47:05;12.05;;;8.43;;
75620;SDS011;64574;48.506;-2.750;2023-03-01T15:49:47;12.68;;;8.30;;
75620;SDS011;64574;48.506;-2.750;2023-03-01T15:52:26;12.45;;;8.55;;
75620;SDS011;64574;48.506;-2.750;2023-03-01T15:55:05;14.75;;;8.98;;
75620;SDS011;64574;48.506;-2.750;2023-03-01T15:57:41;12.10;;;7.65;;
75620;SDS011;64574;48.506;-2.750;2023-03-01T16:00:09;12.98;;;8.60;;
75620;SDS011;64574;48.506;-2.750;2023-03-01T16:02:39;15.75;;;8.32;;
75620;SDS011;64574;48.506;-2.750;2023-03-01T16:05:12;15.25;;;8.63;;
75620;SDS011;64574;48.506;-2.750;2023-03-01T16:07:48;11.82;;;7.57;;
75620;SDS011;64574;48.506;-2.750;2023-03-01T16:10:14;14.63;;;7.70;;
75620;SDS011;64574;48.506;-2.750;2023-03-01T16:12:39;10.50;;;7.07;;
75620;SDS011;64574;48.506;-2.750;2023-03-01T16:15:11;12.88;;;7.53;;
75620;SDS011;64574;48.506;-2.750;2023-03-01T16:17:43;14.43;;;7.47;;
75620;SDS011;64574;48.506;-2.750;2023-03-01T16:20:09;13.32;;;8.05;;
75620;SDS011;64574;48.506;-2.750;2023-03-01T16:22:35;14.00;;;7.45;;
75620;SDS011;64574;48.506;-2.750;2023-03-01T16:25:00;11.55;;;7.10;;
75620;SDS011;64574;48.506;-2.750;2023-03-01T16:27:27;11.20;;;7.32;;
75620;SDS011;64574;48.506;-2.750;2023-03-01T16:29:53;11.75;;;7.45;;
75620;SDS011;64574;48.506;-2.750;2023-03-01T16:32:19;13.20;;;7.47;;
75620;SDS011;64574;48.506;-2.750;2023-03-01T16:34:44;13.35;;;7.60;;
75620;SDS011;64574;48.506;-2.750;2023-03-01T16:37:12;9.52;;;6.30;;
75620;SDS011;64574;48.506;-2.750;2023-03-01T16:39:38;12.85;;;6.63;;
75620;SDS011;64574;48.506;-2.750;2023-03-01T16:42:03;10.95;;;6.18;;
75620;SDS011;64574;48.506;-2.750;2023-03-01T16:44:29;12.23;;;6.63;;
75620;SDS011;64574;48.506;-2.750;2023-03-01T16:46:55;9.68;;;5.43;;
75620;SDS011;64574;48.506;-2.750;2023-03-01T16:49:21;9.88;;;5.43;;
75620;SDS011;64574;48.506;-2.750;2023-03-01T16:51:46;10.20;;;5.88;;
75620;SDS011;64574;48.506;-2.750;2023-03-01T16:54:12;9.55;;;6.00;;
75620;SDS011;64574;48.506;-2.750;2023-03-01T16:56:37;10.15;;;5.50;;
75620;SDS011;64574;48.506;-2.750;2023-03-01T16:59:05;9.30;;;5.38;;
75620;SDS011;64574;48.506;-2.750;2023-03-01T17:01:31;9.60;;;5.95;;
75620;SDS011;64574;48.506;-2.750;2023-03-01T17:04:04;11.82;;;4.75;;
75620;SDS011;64574;48.506;-2.750;2023-03-01T17:06:30;9.40;;;5.20;;
75620;SDS011;64574;48.506;-2.750;2023-03-01T17:08:57;10.20;;;5.28;;
75620;SDS011;64574;48.506;-2.750;2023-03-01T17:11:24;8.95;;;5.13;;
75620;SDS011;64574;48.506;-2.750;2023-03-01T17:13:50;7.22;;;5.28;;
75620;SDS011;64574;48.506;-2.750;2023-03-01T17:16:17;12.68;;;5.80;;
75620;SDS011;64574;48.506;-2.750;2023-03-01T17:18:44;7.30;;;4.82;;